sensor_id;sensor_type;location;lat;lon;timestamp;pressure;altitude;pressure_sealevel;temperature;humidity
71476;BME280;59286;59.274;17.974;2022-07-23T00:01:56;100725.75;;;18.87;80.67
71476;BME280;59286;59.274;17.974;2022-07-23T00:04:21;100725.09;;;18.90;80.39
71476;BME280;59286;59.274;17.974;2022-07-23T00:06:47;100718.75;;;18.79;80.70
71476;BME280;59286;59.274;17.974;2022-07-23T00:09:12;100717.22;;;18.78;80.83
71476;BME280;59286;59.274;17.974;2022-07-23T00:11:38;100711.16;;;18.78;80.64
71476;BME280;59286;59.274;17.974;2022-07-23T00:14:03;100706.50;;;18.75;80.59
71476;BME280;59286;59.274;17.974;2022-07-23T00:16:28;100713.13;;;18.65;79.94
71476;BME280;59286;59.274;17.974;2022-07-23T00:18:54;100708.06;;;18.60;80.32
71476;BME280;59286;59.274;17.974;2022-07-23T00:21:19;100709.38;;;18.66;79.90
71476;BME280;59286;59.274;17.974;2022-07-23T00:23:45;100705.56;;;18.67;79.71
71476;BME280;59286;59.274;17.974;2022-07-23T00:26:10;100704.22;;;18.58;78.98
71476;BME280;59286;59.274;17.974;2022-07-23T00:28:35;100701.31;;;18.47;78.64
71476;BME280;59286;59.274;17.974;2022-07-23T00:31:01;100714.31;;;18.52;78.34
71476;BME280;59286;59.274;17.974;2022-07-23T00:33:26;100707.53;;;18.39;78.03
71476;BME280;59286;59.274;17.974;2022-07-23T00:35:51;100715.16;;;18.40;77.82
71476;BME280;59286;59.274;17.974;2022-07-23T00:38:17;100724.00;;;18.29;77.72
71476;BME280;59286;59.274;17.974;2022-07-23T00:40:42;100730.91;;;18.33;77.58
71476;BME280;59286;59.274;17.974;2022-07-23T00:43:08;100718.25;;;18.27;76.86
71476;BME280;59286;59.274;17.974;2022-07-23T00:45:33;100719.34;;;18.26;76.53
71476;BME280;59286;59.274;17.974;2022-07-23T00:47:59;100729.69;;;18.00;77.13
71476;BME280;59286;59.274;17.974;2022-07-23T00:50:24;100723.41;;;17.92;77.76
71476;BME280;59286;59.274;17.974;2022-07-23T00:52:50;100726.59;;;17.98;77.61
71476;BME280;59286;59.274;17.974;2022-07-23T00:55:16;100724.69;;;17.83;77.63
71476;BME280;59286;59.274;17.974;2022-07-23T00:57:42;100723.41;;;17.77;78.06
71476;BME280;59286;59.274;17.974;2022-07-23T01:00:11;100725.38;;;17.80;77.83
71476;BME280;59286;59.274;17.974;2022-07-23T01:02:37;100723.75;;;17.75;77.87
71476;BME280;59286;59.274;17.974;2022-07-23T01:05:03;100725.19;;;17.73;78.25
71476;BME280;59286;59.274;17.974;2022-07-23T01:07:29;100730.88;;;17.59;78.52
71476;BME280;59286;59.274;17.974;2022-07-23T01:09:55;100731.41;;;17.65;78.38
71476;BME280;59286;59.274;17.974;2022-07-23T01:12:20;100727.69;;;17.54;78.73
71476;BME280;59286;59.274;17.974;2022-07-23T01:14:56;100725.72;;;17.51;78.87
71476;BME280;59286;59.274;17.974;2022-07-23T01:17:22;100728.47;;;17.54;78.83
71476;BME280;59286;59.274;17.974;2022-07-23T01:19:47;100730.78;;;17.56;78.54
71476;BME280;59286;59.274;17.974;2022-07-23T01:22:13;100726.06;;;17.49;78.89
71476;BME280;59286;59.274;17.974;2022-07-23T01:24:39;100716.03;;;17.30;79.54
71476;BME280;59286;59.274;17.974;2022-07-23T01:27:05;100716.94;;;17.10;80.53
71476;BME280;59286;59.274;17.974;2022-07-23T01:29:30;100720.28;;;17.07;80.02
71476;BME280;59286;59.274;17.974;2022-07-23T01:31:56;100720.81;;;17.13;80.10
71476;BME280;59286;59.274;17.974;2022-07-23T01:34:21;100730.63;;;17.24;79.69
71476;BME280;59286;59.274;17.974;2022-07-23T01:36:46;100734.16;;;17.16;79.99
71476;BME280;59286;59.274;17.974;2022-07-23T01:39:12;100729.13;;;16.99;80.41
71476;BME280;59286;59.274;17.974;2022-07-23T01:41:37;100713.56;;;16.86;80.82
71476;BME280;59286;59.274;17.974;2022-07-23T01:44:03;100728.91;;;16.92;81.04
71476;BME280;59286;59.274;17.974;2022-07-23T01:46:28;100722.72;;;16.88;80.84
71476;BME280;59286;59.274;17.974;2022-07-23T01:48:53;100729.44;;;16.62;82.00
71476;BME280;59286;59.274;17.974;2022-07-23T01:51:19;100727.38;;;16.55;82.44
71476;BME280;59286;59.274;17.974;2022-07-23T01:53:44;100727.72;;;16.54;82.53
71476;BME280;59286;59.274;17.974;2022-07-23T01:56:10;100719.66;;;16.50;82.49
71476;BME280;59286;59.274;17.974;2022-07-23T01:58:35;100716.72;;;16.43;82.94
71476;BME280;59286;59.274;17.974;2022-07-23T02:01:00;100716.88;;;16.46;82.49
71476;BME280;59286;59.274;17.974;2022-07-23T02:03:26;100711.66;;;16.38;82.83
71476;BME280;59286;59.274;17.974;2022-07-23T02:05:51;100714.44;;;16.41;83.07
71476;BME280;59286;59.274;17.974;2022-07-23T02:08:17;100707.03;;;16.35;82.94
71476;BME280;59286;59.274;17.974;2022-07-23T02:10:43;100704.41;;;16.35;82.97
71476;BME280;59286;59.274;17.974;2022-07-23T02:13:08;100694.34;;;16.28;83.08
71476;BME280;59286;59.274;17.974;2022-07-23T02:15:34;100701.19;;;16.29;83.05
71476;BME280;59286;59.274;17.974;2022-07-23T02:17:59;100702.50;;;16.23;83.17
71476;BME280;59286;59.274;17.974;2022-07-23T02:20:25;100700.84;;;16.19;83.19
71476;BME280;59286;59.274;17.974;2022-07-23T02:22:50;100701.06;;;16.14;83.53
71476;BME280;59286;59.274;17.974;2022-07-23T02:25:16;100696.09;;;16.12;83.51
71476;BME280;59286;59.274;17.974;2022-07-23T02:27:41;100703.81;;;16.17;83.34
71476;BME280;59286;59.274;17.974;2022-07-23T02:30:07;100700.84;;;16.19;82.76
71476;BME280;59286;59.274;17.974;2022-07-23T02:32:33;100702.84;;;16.34;82.27
71476;BME280;59286;59.274;17.974;2022-07-23T02:34:58;100711.22;;;16.36;81.99
71476;BME280;59286;59.274;17.974;2022-07-23T02:37:24;100705.38;;;16.30;81.64
71476;BME280;59286;59.274;17.974;2022-07-23T02:39:49;100710.34;;;16.32;81.74
71476;BME280;59286;59.274;17.974;2022-07-23T02:42:15;100710.97;;;16.17;81.91
71476;BME280;59286;59.274;17.974;2022-07-23T02:44:41;100705.97;;;15.91;82.38
71476;BME280;59286;59.274;17.974;2022-07-23T02:47:06;100719.66;;;15.73;83.37
71476;BME280;59286;59.274;17.974;2022-07-23T02:49:31;100716.84;;;15.57;83.72
71476;BME280;59286;59.274;17.974;2022-07-23T02:51:57;100715.97;;;15.53;83.77
71476;BME280;59286;59.274;17.974;2022-07-23T02:54:22;100712.22;;;15.54;83.84
71476;BME280;59286;59.274;17.974;2022-07-23T02:56:48;100719.69;;;15.52;83.88
71476;BME280;59286;59.274;17.974;2022-07-23T02:59:15;100714.72;;;15.50;83.69
71476;BME280;59286;59.274;17.974;2022-07-23T03:01:41;100717.72;;;15.49;83.45
71476;BME280;59286;59.274;17.974;2022-07-23T03:04:06;100724.34;;;15.55;83.52
71476;BME280;59286;59.274;17.974;2022-07-23T03:06:31;100723.94;;;15.65;83.08
71476;BME280;59286;59.274;17.974;2022-07-23T03:08:57;100726.25;;;15.67;82.95
71476;BME280;59286;59.274;17.974;2022-07-23T03:11:22;100734.00;;;15.72;82.27
71476;BME280;59286;59.274;17.974;2022-07-23T03:13:47;100730.78;;;15.66;82.62
71476;BME280;59286;59.274;17.974;2022-07-23T03:16:13;100735.66;;;15.56;82.79
71476;BME280;59286;59.274;17.974;2022-07-23T03:18:38;100729.19;;;15.53;82.78
71476;BME280;59286;59.274;17.974;2022-07-23T03:21:04;100743.91;;;15.54;83.01
71476;BME280;59286;59.274;17.974;2022-07-23T03:23:29;100738.84;;;15.49;83.25
71476;BME280;59286;59.274;17.974;2022-07-23T03:25:54;100738.75;;;15.58;82.92
71476;BME280;59286;59.274;17.974;2022-07-23T03:28:20;100732.75;;;15.69;82.59
71476;BME280;59286;59.274;17.974;2022-07-23T03:30:46;100734.13;;;15.75;81.99
71476;BME280;59286;59.274;17.974;2022-07-23T03:33:16;100740.19;;;15.76;82.21
71476;BME280;59286;59.274;17.974;2022-07-23T03:35:42;100726.66;;;15.57;82.48
71476;BME280;59286;59.274;17.974;2022-07-23T03:38:08;100736.97;;;15.49;82.80
71476;BME280;59286;59.274;17.974;2022-07-23T03:40:33;100734.50;;;15.44;83.02
71476;BME280;59286;59.274;17.974;2022-07-23T03:42:58;100728.50;;;15.35;83.20
71476;BME280;59286;59.274;17.974;2022-07-23T03:45:24;100731.50;;;15.25;83.54
71476;BME280;59286;59.274;17.974;2022-07-23T03:47:49;100737.16;;;15.44;83.31
71476;BME280;59286;59.274;17.974;2022-07-23T03:50:14;100736.22;;;15.40;82.63
71476;BME280;59286;59.274;17.974;2022-07-23T03:52:40;100741.69;;;15.44;82.73
71476;BME280;59286;59.274;17.974;2022-07-23T03:55:06;100741.34;;;15.45;82.25
71476;BME280;59286;59.274;17.974;2022-07-23T03:57:32;100744.75;;;15.46;82.29
71476;BME280;59286;59.274;17.974;2022-07-23T03:59:57;100733.69;;;15.52;81.81
71476;BME280;59286;59.274;17.974;2022-07-23T04:02:22;100736.69;;;15.63;81.33
71476;BME280;59286;59.274;17.974;2022-07-23T04:04:48;100742.06;;;15.55;81.79
71476;BME280;59286;59.274;17.974;2022-07-23T04:07:15;100746.91;;;15.52;81.34
71476;BME280;59286;59.274;17.974;2022-07-23T04:09:42;100746.06;;;15.61;81.56
71476;BME280;59286;59.274;17.974;2022-07-23T04:12:08;100733.59;;;15.61;81.05
71476;BME280;59286;59.274;17.974;2022-07-23T04:14:34;100735.06;;;15.71;80.56
71476;BME280;59286;59.274;17.974;2022-07-23T04:16:59;100737.94;;;15.66;80.55
71476;BME280;59286;59.274;17.974;2022-07-23T04:19:25;100746.31;;;15.68;80.71
71476;BME280;59286;59.274;17.974;2022-07-23T04:21:51;100742.22;;;15.70;80.77
71476;BME280;59286;59.274;17.974;2022-07-23T04:24:16;100745.34;;;15.51;80.82
71476;BME280;59286;59.274;17.974;2022-07-23T04:26:42;100742.38;;;15.53;81.01
71476;BME280;59286;59.274;17.974;2022-07-23T04:29:07;100743.88;;;15.63;80.81
71476;BME280;59286;59.274;17.974;2022-07-23T04:31:32;100750.75;;;15.76;80.05
71476;BME280;59286;59.274;17.974;2022-07-23T04:33:58;100759.50;;;15.88;79.48
71476;BME280;59286;59.274;17.974;2022-07-23T04:36:23;100755.94;;;15.84;78.67
71476;BME280;59286;59.274;17.974;2022-07-23T04:38:48;100757.81;;;15.84;79.23
71476;BME280;59286;59.274;17.974;2022-07-23T04:41:14;100755.09;;;15.92;79.13
71476;BME280;59286;59.274;17.974;2022-07-23T04:43:39;100752.66;;;15.87;79.36
71476;BME280;59286;59.274;17.974;2022-07-23T04:46:05;100755.09;;;15.92;78.93
71476;BME280;59286;59.274;17.974;2022-07-23T04:48:31;100760.69;;;15.91;78.96
71476;BME280;59286;59.274;17.974;2022-07-23T04:50:56;100755.34;;;15.99;79.06
71476;BME280;59286;59.274;17.974;2022-07-23T04:53:21;100760.09;;;16.06;78.37
71476;BME280;59286;59.274;17.974;2022-07-23T04:55:47;100755.25;;;16.08;78.43
71476;BME280;59286;59.274;17.974;2022-07-23T04:58:12;100763.56;;;16.18;78.12
71476;BME280;59286;59.274;17.974;2022-07-23T05:00:37;100764.25;;;16.27;77.83
71476;BME280;59286;59.274;17.974;2022-07-23T05:03:03;100759.28;;;16.26;77.22
71476;BME280;59286;59.274;17.974;2022-07-23T05:05:28;100763.69;;;16.22;77.62
71476;BME280;59286;59.274;17.974;2022-07-23T05:07:53;100762.34;;;16.16;77.91
71476;BME280;59286;59.274;17.974;2022-07-23T05:10:19;100771.09;;;15.96;78.57
71476;BME280;59286;59.274;17.974;2022-07-23T05:12:44;100764.91;;;15.92;78.68
71476;BME280;59286;59.274;17.974;2022-07-23T05:15:10;100763.69;;;15.89;78.79
71476;BME280;59286;59.274;17.974;2022-07-23T05:17:35;100756.06;;;15.88;79.32
71476;BME280;59286;59.274;17.974;2022-07-23T05:20:00;100765.22;;;15.90;78.84
71476;BME280;59286;59.274;17.974;2022-07-23T05:22:26;100760.69;;;15.91;78.62
71476;BME280;59286;59.274;17.974;2022-07-23T05:24:51;100750.09;;;15.79;78.73
71476;BME280;59286;59.274;17.974;2022-07-23T05:27:16;100750.44;;;15.77;79.32
71476;BME280;59286;59.274;17.974;2022-07-23T05:29:42;100756.66;;;15.73;79.66
71476;BME280;59286;59.274;17.974;2022-07-23T05:32:07;100759.38;;;15.85;79.39
71476;BME280;59286;59.274;17.974;2022-07-23T05:34:32;100753.97;;;15.81;79.26
71476;BME280;59286;59.274;17.974;2022-07-23T05:36:58;100754.09;;;15.85;79.56
71476;BME280;59286;59.274;17.974;2022-07-23T05:39:23;100758.16;;;15.82;79.59
71476;BME280;59286;59.274;17.974;2022-07-23T05:41:48;100751.63;;;15.80;79.37
71476;BME280;59286;59.274;17.974;2022-07-23T05:44:14;100751.19;;;15.78;79.32
71476;BME280;59286;59.274;17.974;2022-07-23T05:46:39;100748.88;;;15.76;79.24
71476;BME280;59286;59.274;17.974;2022-07-23T05:49:04;100754.28;;;15.80;80.01
71476;BME280;59286;59.274;17.974;2022-07-23T05:51:30;100755.69;;;15.98;78.84
71476;BME280;59286;59.274;17.974;2022-07-23T05:53:55;100755.25;;;16.08;78.64
71476;BME280;59286;59.274;17.974;2022-07-23T05:56:20;100758.13;;;16.15;78.20
71476;BME280;59286;59.274;17.974;2022-07-23T05:58:46;100752.50;;;16.04;77.44
71476;BME280;59286;59.274;17.974;2022-07-23T06:01:11;100753.03;;;15.98;78.21
71476;BME280;59286;59.274;17.974;2022-07-23T06:03:37;100751.72;;;16.04;78.31
71476;BME280;59286;59.274;17.974;2022-07-23T06:06:03;100749.56;;;16.18;78.10
71476;BME280;59286;59.274;17.974;2022-07-23T06:08:29;100749.00;;;16.12;77.62
71476;BME280;59286;59.274;17.974;2022-07-23T06:10:54;100753.44;;;16.20;77.48
71476;BME280;59286;59.274;17.974;2022-07-23T06:13:20;100745.47;;;16.08;77.84
71476;BME280;59286;59.274;17.974;2022-07-23T06:15:46;100751.09;;;16.19;77.54
71476;BME280;59286;59.274;17.974;2022-07-23T06:18:11;100751.34;;;16.26;77.36
71476;BME280;59286;59.274;17.974;2022-07-23T06:20:36;100762.72;;;16.38;76.74
71476;BME280;59286;59.274;17.974;2022-07-23T06:23:02;100755.06;;;16.25;76.70
71476;BME280;59286;59.274;17.974;2022-07-23T06:25:28;100751.41;;;16.17;77.34
71476;BME280;59286;59.274;17.974;2022-07-23T06:27:53;100750.84;;;16.12;77.53
71476;BME280;59286;59.274;17.974;2022-07-23T06:30:19;100747.88;;;16.01;77.70
71476;BME280;59286;59.274;17.974;2022-07-23T06:32:45;100741.91;;;16.04;77.89
71476;BME280;59286;59.274;17.974;2022-07-23T06:35:10;100756.72;;;16.17;77.81
71476;BME280;59286;59.274;17.974;2022-07-23T06:37:36;100754.84;;;16.30;77.11
71476;BME280;59286;59.274;17.974;2022-07-23T06:40:02;100750.00;;;16.32;76.65
71476;BME280;59286;59.274;17.974;2022-07-23T06:42:28;100742.97;;;16.36;76.48
71476;BME280;59286;59.274;17.974;2022-07-23T06:44:53;100743.03;;;16.48;75.84
71476;BME280;59286;59.274;17.974;2022-07-23T06:47:18;100746.22;;;16.66;75.47
71476;BME280;59286;59.274;17.974;2022-07-23T06:49:44;100745.91;;;16.79;74.47
71476;BME280;59286;59.274;17.974;2022-07-23T06:52:09;100749.66;;;17.02;74.16
71476;BME280;59286;59.274;17.974;2022-07-23T06:54:34;100748.84;;;17.14;72.14
71476;BME280;59286;59.274;17.974;2022-07-23T06:57:00;100750.25;;;17.23;72.22
71476;BME280;59286;59.274;17.974;2022-07-23T06:59:25;100743.94;;;17.40;71.82
71476;BME280;59286;59.274;17.974;2022-07-23T07:01:51;100755.63;;;17.51;71.37
71476;BME280;59286;59.274;17.974;2022-07-23T07:04:16;100750.22;;;17.48;70.56
71476;BME280;59286;59.274;17.974;2022-07-23T07:06:41;100747.06;;;17.70;71.01
71476;BME280;59286;59.274;17.974;2022-07-23T07:09:07;100754.97;;;17.82;69.31
71476;BME280;59286;59.274;17.974;2022-07-23T07:11:32;100752.84;;;17.60;69.05
71476;BME280;59286;59.274;17.974;2022-07-23T07:13:57;100752.94;;;17.63;70.23
71476;BME280;59286;59.274;17.974;2022-07-23T07:16:23;100756.81;;;17.66;70.28
71476;BME280;59286;59.274;17.974;2022-07-23T07:18:48;100762.69;;;17.59;69.49
71476;BME280;59286;59.274;17.974;2022-07-23T07:21:14;100769.34;;;17.41;70.61
71476;BME280;59286;59.274;17.974;2022-07-23T07:23:39;100761.72;;;17.39;70.30
71476;BME280;59286;59.274;17.974;2022-07-23T07:26:05;100759.53;;;17.29;70.71
71476;BME280;59286;59.274;17.974;2022-07-23T07:28:30;100761.94;;;17.34;70.64
71476;BME280;59286;59.274;17.974;2022-07-23T07:30:55;100769.69;;;17.39;70.72
71476;BME280;59286;59.274;17.974;2022-07-23T07:33:20;100768.13;;;17.51;71.00
71476;BME280;59286;59.274;17.974;2022-07-23T07:35:47;100768.16;;;17.66;69.60
71476;BME280;59286;59.274;17.974;2022-07-23T07:38:12;100765.31;;;17.71;69.56
71476;BME280;59286;59.274;17.974;2022-07-23T07:40:37;100759.41;;;17.78;69.05
71476;BME280;59286;59.274;17.974;2022-07-23T07:43:03;100762.63;;;17.99;68.86
71476;BME280;59286;59.274;17.974;2022-07-23T07:45:28;100766.47;;;18.29;67.42
71476;BME280;59286;59.274;17.974;2022-07-23T07:47:54;100761.06;;;18.41;67.74
71476;BME280;59286;59.274;17.974;2022-07-23T07:50:20;100772.56;;;18.45;67.46
71476;BME280;59286;59.274;17.974;2022-07-23T07:52:45;100773.69;;;18.16;66.50
71476;BME280;59286;59.274;17.974;2022-07-23T07:55:11;100775.38;;;17.93;67.73
71476;BME280;59286;59.274;17.974;2022-07-23T07:57:37;100775.84;;;17.83;68.38
71476;BME280;59286;59.274;17.974;2022-07-23T08:00:04;100781.97;;;17.72;68.51
71476;BME280;59286;59.274;17.974;2022-07-23T08:05:07;100786.97;;;17.61;69.70
71476;BME280;59286;59.274;17.974;2022-07-23T08:07:33;100791.50;;;17.61;69.17
71476;BME280;59286;59.274;17.974;2022-07-23T08:09:59;100796.53;;;17.78;69.15
71476;BME280;59286;59.274;17.974;2022-07-23T08:12:24;100798.75;;;17.76;68.63
71476;BME280;59286;59.274;17.974;2022-07-23T08:14:49;100797.25;;;17.63;68.60
71476;BME280;59286;59.274;17.974;2022-07-23T08:17:15;100796.16;;;17.64;69.07
71476;BME280;59286;59.274;17.974;2022-07-23T08:19:40;100796.06;;;17.60;69.63
71476;BME280;59286;59.274;17.974;2022-07-23T08:22:05;100797.44;;;17.70;69.07
71476;BME280;59286;59.274;17.974;2022-07-23T08:24:31;100795.91;;;17.69;69.96
71476;BME280;59286;59.274;17.974;2022-07-23T08:26:56;100804.28;;;17.71;69.40
71476;BME280;59286;59.274;17.974;2022-07-23T08:29:21;100809.22;;;17.84;69.82
71476;BME280;59286;59.274;17.974;2022-07-23T08:31:47;100808.63;;;17.91;68.91
71476;BME280;59286;59.274;17.974;2022-07-23T08:34:12;100799.88;;;17.75;69.11
71476;BME280;59286;59.274;17.974;2022-07-23T08:36:37;100801.66;;;17.71;69.58
71476;BME280;59286;59.274;17.974;2022-07-23T08:39:03;100813.59;;;17.65;69.69
71476;BME280;59286;59.274;17.974;2022-07-23T08:41:28;100818.25;;;17.68;69.41
71476;BME280;59286;59.274;17.974;2022-07-23T08:43:54;100806.13;;;17.55;69.83
71476;BME280;59286;59.274;17.974;2022-07-23T08:46:20;100811.28;;;17.63;69.98
71476;BME280;59286;59.274;17.974;2022-07-23T08:48:48;100822.75;;;17.67;69.20
71476;BME280;59286;59.274;17.974;2022-07-23T08:51:14;100832.34;;;17.72;69.15
71476;BME280;59286;59.274;17.974;2022-07-23T08:53:40;100840.28;;;17.84;68.97
71476;BME280;59286;59.274;17.974;2022-07-23T08:56:07;100830.75;;;17.83;68.40
71476;BME280;59286;59.274;17.974;2022-07-23T08:58:32;100821.81;;;17.87;68.43
71476;BME280;59286;59.274;17.974;2022-07-23T09:00:58;100831.72;;;17.90;69.05
71476;BME280;59286;59.274;17.974;2022-07-23T09:03:29;100831.63;;;17.87;68.79
71476;BME280;59286;59.274;17.974;2022-07-23T09:05:56;100826.56;;;17.82;69.66
71476;BME280;59286;59.274;17.974;2022-07-23T09:08:34;100822.41;;;17.69;69.53
71476;BME280;59286;59.274;17.974;2022-07-23T09:11:05;100831.06;;;17.66;69.83
71476;BME280;59286;59.274;17.974;2022-07-23T09:13:52;100837.53;;;17.80;69.67
71476;BME280;59286;59.274;17.974;2022-07-23T09:16:27;100841.94;;;17.88;69.36
71476;BME280;59286;59.274;17.974;2022-07-23T09:18:57;100841.16;;;17.88;69.52
71476;BME280;59286;59.274;17.974;2022-07-23T09:21:25;100843.28;;;17.82;68.74
71476;BME280;59286;59.274;17.974;2022-07-23T09:23:57;100840.03;;;17.89;69.00
71476;BME280;59286;59.274;17.974;2022-07-23T09:29:03;100829.94;;;18.22;67.80
71476;BME280;59286;59.274;17.974;2022-07-23T09:31:55;100827.22;;;18.46;67.58
71476;BME280;59286;59.274;17.974;2022-07-23T09:34:24;100833.03;;;18.67;66.88
71476;BME280;59286;59.274;17.974;2022-07-23T09:36:52;100836.97;;;18.58;66.45
71476;BME280;59286;59.274;17.974;2022-07-23T09:39:30;100842.72;;;18.60;67.24
71476;BME280;59286;59.274;17.974;2022-07-23T09:41:56;100837.84;;;18.46;67.26
71476;BME280;59286;59.274;17.974;2022-07-23T09:44:22;100842.56;;;18.25;67.03
71476;BME280;59286;59.274;17.974;2022-07-23T09:46:49;100846.81;;;18.14;68.02
71476;BME280;59286;59.274;17.974;2022-07-23T09:49:22;100849.47;;;18.14;68.40
71476;BME280;59286;59.274;17.974;2022-07-23T09:51:51;100849.50;;;18.02;68.61
71476;BME280;59286;59.274;17.974;2022-07-23T09:54:22;100843.44;;;18.01;69.10
71476;BME280;59286;59.274;17.974;2022-07-23T09:56:49;100840.22;;;17.96;68.30
71476;BME280;59286;59.274;17.974;2022-07-23T09:59:16;100846.63;;;18.07;68.42
71476;BME280;59286;59.274;17.974;2022-07-23T10:01:44;100844.94;;;18.30;68.75
71476;BME280;59286;59.274;17.974;2022-07-23T10:04:11;100841.25;;;18.47;67.80
71476;BME280;59286;59.274;17.974;2022-07-23T10:06:36;100841.63;;;18.33;67.68
71476;BME280;59286;59.274;17.974;2022-07-23T10:09:03;100841.88;;;18.28;67.22
71476;BME280;59286;59.274;17.974;2022-07-23T10:11:30;100840.94;;;18.36;67.36
71476;BME280;59286;59.274;17.974;2022-07-23T10:13:56;100848.97;;;18.24;67.26
71476;BME280;59286;59.274;17.974;2022-07-23T10:16:27;100848.44;;;18.18;68.14
71476;BME280;59286;59.274;17.974;2022-07-23T10:18:52;100849.28;;;18.07;67.96
71476;BME280;59286;59.274;17.974;2022-07-23T10:21:30;100845.53;;;17.96;68.61
71476;BME280;59286;59.274;17.974;2022-07-23T10:27:34;100842.84;;;18.08;68.16
71476;BME280;59286;59.274;17.974;2022-07-23T10:38:21;100865.75;;;18.00;69.55
71476;BME280;59286;59.274;17.974;2022-07-23T10:40:58;100853.28;;;18.01;69.04
71476;BME280;59286;59.274;17.974;2022-07-23T10:43:24;100856.00;;;18.04;69.53
71476;BME280;59286;59.274;17.974;2022-07-23T10:45:51;100862.75;;;18.02;69.17
71476;BME280;59286;59.274;17.974;2022-07-23T10:48:18;100859.09;;;18.06;69.56
71476;BME280;59286;59.274;17.974;2022-07-23T10:53:57;100860.09;;;18.02;69.61
71476;BME280;59286;59.274;17.974;2022-07-23T10:56:51;100854.50;;;17.91;69.93
71476;BME280;59286;59.274;17.974;2022-07-23T10:59:29;100861.63;;;17.75;70.72
71476;BME280;59286;59.274;17.974;2022-07-23T11:02:20;100864.19;;;17.60;71.16
71476;BME280;59286;59.274;17.974;2022-07-23T11:04:52;100865.75;;;17.49;71.56
71476;BME280;59286;59.274;17.974;2022-07-23T11:07:18;100866.63;;;17.40;71.46
71476;BME280;59286;59.274;17.974;2022-07-23T11:09:44;100863.53;;;17.38;71.72
71476;BME280;59286;59.274;17.974;2022-07-23T11:17:23;100869.59;;;17.39;71.65
71476;BME280;59286;59.274;17.974;2022-07-23T11:22:35;100876.66;;;17.35;72.07
71476;BME280;59286;59.274;17.974;2022-07-23T11:25:00;100875.34;;;17.29;72.40
71476;BME280;59286;59.274;17.974;2022-07-23T11:27:44;100877.00;;;17.33;72.39
71476;BME280;59286;59.274;17.974;2022-07-23T11:33:25;100881.19;;;16.98;74.64
71476;BME280;59286;59.274;17.974;2022-07-23T11:36:01;100881.06;;;16.95;75.33
71476;BME280;59286;59.274;17.974;2022-07-23T11:38:30;100883.56;;;16.79;76.11
71476;BME280;59286;59.274;17.974;2022-07-23T11:40:56;100884.66;;;16.66;76.67
71476;BME280;59286;59.274;17.974;2022-07-23T11:43:23;100873.16;;;16.50;76.63
71476;BME280;59286;59.274;17.974;2022-07-23T11:45:51;100873.75;;;16.47;76.77
71476;BME280;59286;59.274;17.974;2022-07-23T11:48:28;100879.63;;;16.53;76.18
71476;BME280;59286;59.274;17.974;2022-07-23T11:50:55;100873.59;;;16.52;75.79
71476;BME280;59286;59.274;17.974;2022-07-23T11:53:22;100874.47;;;16.56;76.01
71476;BME280;59286;59.274;17.974;2022-07-23T11:55:47;100878.34;;;16.59;76.45
71476;BME280;59286;59.274;17.974;2022-07-23T11:58:13;100875.25;;;16.57;76.53
71476;BME280;59286;59.274;17.974;2022-07-23T12:00:40;100872.94;;;16.55;75.78
71476;BME280;59286;59.274;17.974;2022-07-23T12:03:07;100869.16;;;16.56;75.94
71476;BME280;59286;59.274;17.974;2022-07-23T12:05:34;100879.13;;;16.59;75.83
71476;BME280;59286;59.274;17.974;2022-07-23T12:08:02;100880.78;;;16.64;75.97
71476;BME280;59286;59.274;17.974;2022-07-23T12:10:40;100882.00;;;16.66;74.96
71476;BME280;59286;59.274;17.974;2022-07-23T12:13:14;100883.75;;;16.62;75.15
71476;BME280;59286;59.274;17.974;2022-07-23T12:15:48;100884.53;;;16.63;74.97
71476;BME280;59286;59.274;17.974;2022-07-23T12:18:18;100893.38;;;16.67;75.17
71476;BME280;59286;59.274;17.974;2022-07-23T12:20:46;100890.28;;;16.65;74.74
71476;BME280;59286;59.274;17.974;2022-07-23T12:23:15;100885.66;;;16.74;74.77
71476;BME280;59286;59.274;17.974;2022-07-23T12:25:43;100890.63;;;16.75;74.34
71476;BME280;59286;59.274;17.974;2022-07-23T12:28:20;100890.63;;;16.75;74.00
71476;BME280;59286;59.274;17.974;2022-07-23T12:30:48;100891.28;;;16.72;74.12
71476;BME280;59286;59.274;17.974;2022-07-23T12:33:27;100891.97;;;16.81;74.45
71476;BME280;59286;59.274;17.974;2022-07-23T12:35:55;100892.09;;;16.85;74.49
71476;BME280;59286;59.274;17.974;2022-07-23T12:38:23;100890.97;;;16.86;74.18
71476;BME280;59286;59.274;17.974;2022-07-23T12:40:58;100888.88;;;16.79;73.49
71476;BME280;59286;59.274;17.974;2022-07-23T12:43:33;100897.25;;;16.81;73.87
71476;BME280;59286;59.274;17.974;2022-07-23T12:48:28;100895.44;;;17.06;72.72
71476;BME280;59286;59.274;17.974;2022-07-23T12:51:02;100900.94;;;17.01;72.57
71476;BME280;59286;59.274;17.974;2022-07-23T12:53:32;100907.00;;;17.01;72.74
71476;BME280;59286;59.274;17.974;2022-07-23T12:56:12;100909.66;;;17.01;72.40
71476;BME280;59286;59.274;17.974;2022-07-23T12:58:51;100915.84;;;17.05;72.73
71476;BME280;59286;59.274;17.974;2022-07-23T13:06:20;100913.53;;;17.04;72.49
71476;BME280;59286;59.274;17.974;2022-07-23T13:08:45;100913.31;;;17.09;72.63
71476;BME280;59286;59.274;17.974;2022-07-23T13:11:10;100914.97;;;17.13;72.24
71476;BME280;59286;59.274;17.974;2022-07-23T13:13:36;100909.00;;;17.16;72.16
71476;BME280;59286;59.274;17.974;2022-07-23T13:16:02;100913.63;;;17.19;72.24
71476;BME280;59286;59.274;17.974;2022-07-23T13:18:28;100913.63;;;17.19;72.08